Time;durP1;ratioP1;P1;durP2;ratioP2;P2;SDS_P1;SDS_P2;PMS_P1;PMS_P2;Temp;Humidity;BMP_temperature;BMP_pressure;BME280_temperature;BME280_humidity;BME280_pressure;Samples;Min_cycle;Max_cycle;Signal;HPM_P1;HPM_P2
2023/05/29 00:00:13;;;;;;;11.20;3.65;;;;;;;20.78;57.85;99604.81;5044296;28;20448;-75
2023/05/29 00:02:44;;;;;;;9.70;3.60;;;;;;;20.78;57.64;99604.81;5036651;28;20047;-75
2023/05/29 00:05:11;;;;;;;12.90;4.30;;;;;;;20.75;57.78;99599.66;5038950;28;20076;-75
2023/05/29 00:07:37;;;;;;;11.15;3.75;;;;;;;20.68;57.83;99605.44;5056712;28;20032;-75
2023/05/29 00:10:04;;;;;;;15.93;3.83;;;;;;;20.61;57.79;99602.25;5056615;28;20021;-74
2023/05/29 00:12:29;;;;;;;15.30;3.50;;;;;;;20.56;57.74;99604.31;5052123;28;20021;-74
2023/05/29 00:14:54;;;;;;;13.13;3.80;;;;;;;20.51;57.72;99601.91;5039085;28;20105;-74
2023/05/29 00:17:20;;;;;;;12.60;3.67;;;;;;;20.50;58.04;99610.88;5040592;28;20032;-75
2023/05/29 00:19:46;;;;;;;12.87;3.80;;;;;;;20.48;57.97;99599.41;5040507;28;20022;-75
2023/05/29 00:22:12;;;;;;;11.73;4.13;;;;;;;20.43;57.86;99596.13;5041533;28;20120;-75
2023/05/29 00:24:37;;;;;;;11.97;4.20;;;;;;;20.41;57.94;99600.69;5040531;28;20037;-75
2023/05/29 00:27:03;;;;;;;12.43;3.70;;;;;;;20.34;57.92;99600.16;5040660;28;20013;-75
2023/05/29 00:29:29;;;;;;;11.00;3.73;;;;;;;20.30;58.14;99593.28;5040177;28;20021;-74
2023/05/29 00:31:54;;;;;;;10.63;3.60;;;;;;;20.26;58.59;99603.25;5040434;28;20105;-74
2023/05/29 00:34:23;;;;;;;11.03;3.97;;;;;;;20.26;58.31;99597.91;5040422;28;20034;-74
2023/05/29 00:36:49;;;;;;;11.73;3.45;;;;;;;20.25;58.33;99601.53;5038949;28;20018;-74
2023/05/29 00:39:15;;;;;;;12.13;3.95;;;;;;;20.21;58.46;99606.19;5040189;28;20025;-74
2023/05/29 00:41:40;;;;;;;13.23;3.67;;;;;;;20.19;58.59;99607.22;5038696;28;20052;-74
2023/05/29 00:44:06;;;;;;;11.85;3.80;;;;;;;20.15;58.39;99597.66;5039930;28;20040;-75
2023/05/29 00:46:33;;;;;;;12.27;3.90;;;;;;;20.12;58.72;99590.66;5039903;28;20075;-74
2023/05/29 00:49:00;;;;;;;15.93;3.67;;;;;;;20.10;58.28;99587.22;5039929;28;20040;-74
2023/05/29 00:51:27;;;;;;;11.80;3.38;;;;;;;20.08;58.59;99589.94;5038483;28;20047;-74
2023/05/29 00:53:53;;;;;;;11.45;3.35;;;;;;;20.07;58.77;99590.06;5038632;28;20117;-75
2023/05/29 00:56:20;;;;;;;15.95;3.67;;;;;;;20.06;58.79;99593.69;5048483;28;20059;-74
2023/05/29 00:58:50;;;;;;;11.67;4.30;;;;;;;20.06;58.71;99591.00;5057086;28;20029;-74
2023/05/29 01:01:18;;;;;;;13.60;4.53;;;;;;;20.00;58.30;99586.84;5039973;28;20052;-74
2023/05/29 01:03:45;;;;;;;11.32;3.53;;;;;;;19.97;58.63;99587.00;5039622;28;20570;-74
2023/05/29 01:06:14;;;;;;;10.88;3.38;;;;;;;19.88;59.32;99584.78;5049723;28;20033;-74
2023/05/29 01:08:39;;;;;;;10.68;3.78;;;;;;;19.84;58.99;99589.44;5059484;28;20032;-74
2023/05/29 01:11:36;;;;;;;14.70;3.97;;;;;;;19.84;59.02;99593.91;5058114;28;20017;-74
2023/05/29 01:14:09;;;;;;;12.55;3.72;;;;;;;19.82;59.07;99594.00;5043001;28;20037;-74
2023/05/29 01:16:51;;;;;;;12.15;3.47;;;;;;;19.76;59.22;99595.19;5039384;28;20021;-74
2023/05/29 01:19:46;;;;;;;12.02;3.47;;;;;;;19.72;59.39;99595.44;5038033;28;20045;-74
2023/05/29 01:22:45;;;;;;;11.67;4.17;;;;;;;19.67;59.44;99598.38;5044725;28;20025;-74
2023/05/29 01:25:44;;;;;;;12.57;4.00;;;;;;;19.61;59.79;99598.66;5038650;28;20033;-74
2023/05/29 01:28:12;;;;;;;14.30;4.35;;;;;;;19.53;59.69;99592.88;5039175;28;20030;-75
2023/05/29 01:30:40;;;;;;;11.02;4.20;;;;;;;19.50;59.67;99594.75;5038967;28;20034;-74
2023/05/29 01:33:06;;;;;;;11.52;3.58;;;;;;;19.47;59.91;99594.94;5037754;28;20030;-74
2023/05/29 01:35:32;;;;;;;12.00;4.47;;;;;;;19.47;59.98;99591.38;5039287;28;20052;-74
2023/05/29 01:37:57;;;;;;;10.40;3.42;;;;;;;19.42;60.26;99596.09;5039011;28;20029;-75
2023/05/29 01:40:23;;;;;;;11.20;3.87;;;;;;;19.41;60.26;99589.03;5039031;28;20036;-75
2023/05/29 01:42:49;;;;;;;11.38;3.88;;;;;;;19.43;60.21;99597.84;5038784;28;20103;-75
2023/05/29 01:45:16;;;;;;;11.48;3.97;;;;;;;19.43;60.35;99592.50;5038906;28;20037;-74
2023/05/29 01:47:42;;;;;;;10.60;3.72;;;;;;;19.42;60.24;99605.00;5037563;28;20117;-75
2023/05/29 01:50:10;;;;;;;11.40;3.93;;;;;;;19.39;60.24;99597.13;5037655;28;20025;-75
2023/05/29 01:52:36;;;;;;;13.70;4.53;;;;;;;19.35;60.28;99598.22;5038597;28;20128;-75
2023/05/29 01:55:02;;;;;;;14.70;4.82;;;;;;;19.28;60.76;99605.66;5038599;28;20068;-75
2023/05/29 01:57:28;;;;;;;11.77;4.03;;;;;;;19.16;61.06;99609.81;5038707;28;20089;-74
2023/05/29 01:59:54;;;;;;;15.25;4.60;;;;;;;19.02;61.81;99599.84;5038265;28;20072;-74
2023/05/29 02:02:22;;;;;;;14.10;4.60;;;;;;;18.92;61.91;99602.06;5039141;28;20121;-75
2023/05/29 02:04:48;;;;;;;13.83;4.53;;;;;;;18.89;61.84;99615.56;5038551;28;20079;-75
2023/05/29 02:07:15;;;;;;;12.68;4.22;;;;;;;18.84;61.99;99620.28;5057769;28;20025;-74
2023/05/29 02:09:40;;;;;;;12.82;4.10;;;;;;;18.70;62.49;99614.75;5058379;28;20020;-75
2023/05/29 02:12:07;;;;;;;10.17;4.40;;;;;;;18.62;62.41;99617.78;5057768;28;20023;-75
2023/05/29 02:14:34;;;;;;;14.52;4.32;;;;;;;18.56;62.56;99623.41;5038198;28;20022;-74
2023/05/29 02:17:01;;;;;;;12.77;4.50;;;;;;;18.52;62.58;99628.03;5036681;28;20037;-75
2023/05/29 02:19:27;;;;;;;15.57;4.80;;;;;;;18.43;62.92;99617.78;5038486;28;20055;-75
2023/05/29 02:21:52;;;;;;;13.43;4.30;;;;;;;18.35;63.22;99632.34;5043595;28;20052;-74
2023/05/29 02:24:18;;;;;;;17.80;4.72;;;;;;;18.29;63.18;99629.09;5038201;28;20033;-74
2023/05/29 02:26:45;;;;;;;14.37;4.87;;;;;;;18.32;63.03;99632.50;5036706;28;20032;-74
2023/05/29 02:29:12;;;;;;;15.38;4.50;;;;;;;18.36;62.87;99631.41;5036606;28;20022;-74
2023/05/29 02:31:38;;;;;;;17.58;4.28;;;;;;;18.30;62.97;99622.81;5037871;28;20025;-75
2023/05/29 02:34:03;;;;;;;13.40;4.40;;;;;;;18.23;63.06;99632.94;5038125;28;20470;-75
2023/05/29 02:36:28;;;;;;;14.93;4.77;;;;;;;18.17;63.21;99627.88;5035809;28;20083;-75
2023/05/29 02:38:54;;;;;;;14.40;5.10;;;;;;;18.17;63.20;99625.19;5037877;28;20028;-75
2023/05/29 02:41:20;;;;;;;13.17;4.70;;;;;;;18.13;63.39;99623.63;5037790;28;20721;-76
2023/05/29 02:43:46;;;;;;;12.65;4.05;;;;;;;18.07;63.34;99617.63;5037847;28;20043;-75
2023/05/29 02:46:11;;;;;;;13.20;4.20;;;;;;;18.07;63.43;99612.31;5036282;28;20021;-75
2023/05/29 02:48:37;;;;;;;14.43;4.40;;;;;;;18.07;63.46;99614.97;5038029;28;20079;-75
2023/05/29 02:51:03;;;;;;;14.37;5.03;;;;;;;18.12;63.49;99616.56;5037643;28;20452;-74
2023/05/29 02:53:29;;;;;;;11.63;4.00;;;;;;;18.14;63.28;99609.34;5037687;28;20108;-75
2023/05/29 02:55:54;;;;;;;14.27;4.43;;;;;;;18.11;63.42;99613.03;5037534;28;20041;-75
2023/05/29 02:58:22;;;;;;;11.52;4.30;;;;;;;18.09;63.51;99614.91;5037692;28;20025;-75
2023/05/29 03:00:48;;;;;;;15.30;4.63;;;;;;;18.13;63.64;99613.84;5037199;28;20029;-76
2023/05/29 03:03:13;;;;;;;13.63;4.40;;;;;;;18.15;63.45;99616.41;5037509;28;20029;-75
2023/05/29 03:05:39;;;;;;;11.87;4.20;;;;;;;18.17;63.32;99610.09;5041472;28;20029;-75
2023/05/29 03:08:05;;;;;;;11.37;4.20;;;;;;;18.16;63.52;99620.81;5057421;28;20028;-75
2023/05/29 03:10:30;;;;;;;17.98;4.22;;;;;;;18.13;63.53;99620.94;5057160;28;20035;-75
2023/05/29 03:12:55;;;;;;;12.93;4.50;;;;;;;18.11;63.30;99613.03;5050484;28;20390;-74
2023/05/29 03:15:21;;;;;;;15.20;3.93;;;;;;;18.11;63.43;99613.03;5037016;28;20052;-75
2023/05/29 03:17:47;;;;;;;16.08;3.90;;;;;;;18.08;63.53;99608.72;5037357;28;20076;-75
2023/05/29 03:20:13;;;;;;;13.20;4.73;;;;;;;18.05;63.63;99608.84;5055600;28;20056;-75
2023/05/29 03:22:38;;;;;;;14.90;4.28;;;;;;;18.03;63.51;99604.50;5045096;28;20021;-75
2023/05/29 03:25:05;;;;;;;11.52;4.05;;;;;;;18.02;63.58;99605.44;5036907;28;20083;-75
2023/05/29 03:27:31;;;;;;;12.43;3.90;;;;;;;18.01;63.59;99601.03;5035804;28;20021;-75
2023/05/29 03:29:57;;;;;;;10.93;4.10;;;;;;;17.93;63.72;99598.72;5035349;28;20032;-75
2023/05/29 03:32:24;;;;;;;13.00;3.92;;;;;;;17.91;63.71;99600.59;5037119;28;20036;-75
2023/05/29 03:34:49;;;;;;;14.65;3.75;;;;;;;17.92;63.75;99604.97;5037124;28;20427;-75
2023/05/29 03:37:15;;;;;;;11.20;4.03;;;;;;;17.93;63.67;99604.03;5036802;28;20029;-75
2023/05/29 03:39:40;;;;;;;11.27;3.23;;;;;;;17.95;63.49;99607.50;5035492;28;20028;-75
2023/05/29 03:42:06;;;;;;;12.25;3.75;;;;;;;17.96;63.45;99611.03;5035571;28;20021;-76
2023/05/29 03:44:31;;;;;;;14.50;3.90;;;;;;;17.94;63.19;99605.75;5035418;28;20406;-75
2023/05/29 03:46:57;;;;;;;11.95;3.83;;;;;;;17.93;63.05;99599.59;5036738;28;20525;-75
2023/05/29 03:49:23;;;;;;;15.30;4.40;;;;;;;17.91;63.23;99613.91;5036699;28;20389;-75
2023/05/29 03:51:49;;;;;;;14.90;4.30;;;;;;;17.87;63.14;99610.53;5036892;28;20045;-75
2023/05/29 03:54:15;;;;;;;14.38;4.20;;;;;;;17.83;63.39;99611.56;5036497;28;20033;-75
2023/05/29 03:56:40;;;;;;;14.75;4.00;;;;;;;17.70;63.40;99608.59;5037157;28;20033;-74
2023/05/29 03:59:06;;;;;;;9.80;4.37;;;;;;;17.59;63.97;99610.88;5036510;28;20104;-74
2023/05/29 04:01:32;;;;;;;14.33;5.00;;;;;;;17.46;64.53;99614.06;5036079;28;20105;-74
2023/05/29 04:03:57;;;;;;;12.15;4.38;;;;;;;17.38;64.86;99621.53;5036642;28;20675;-74
2023/05/29 04:06:24;;;;;;;14.10;4.70;;;;;;;17.31;65.08;99622.72;5048681;28;20025;-74
2023/05/29 04:08:50;;;;;;;11.07;4.60;;;;;;;17.26;65.46;99620.25;5055337;28;20048;-74
2023/05/29 04:11:16;;;;;;;9.88;4.43;;;;;;;17.24;65.38;99618.56;5040144;28;20029;-74
2023/05/29 04:13:41;;;;;;;14.80;5.17;;;;;;;17.16;65.90;99614.44;5036223;28;20026;-74
2023/05/29 04:16:07;;;;;;;14.77;5.50;;;;;;;17.08;66.04;99616.56;5036687;28;20021;-74
2023/05/29 04:18:33;;;;;;;15.47;4.70;;;;;;;17.06;65.97;99623.75;5035294;28;20120;-74
2023/05/29 04:20:58;;;;;;;13.43;4.50;;;;;;;17.07;65.88;99625.47;5040754;28;20021;-75
2023/05/29 04:23:24;;;;;;;13.80;5.53;;;;;;;17.07;65.99;99625.47;5038611;28;20382;-74
2023/05/29 04:25:52;;;;;;;14.50;5.13;;;;;;;17.00;66.53;99623.97;5035364;28;20478;-74
2023/05/29 04:28:21;;;;;;;14.52;5.07;;;;;;;16.99;66.18;99625.78;5036437;28;20505;-74
2023/05/29 04:30:47;;;;;;;12.48;4.60;;;;;;;17.01;66.04;99628.41;5034822;28;20072;-74
2023/05/29 04:33:12;;;;;;;15.30;5.20;;;;;;;17.06;65.70;99631.72;5036315;28;20497;-74
2023/05/29 04:35:38;;;;;;;12.77;4.77;;;;;;;17.10;65.79;99630.66;5035151;28;20029;-74
2023/05/29 04:38:04;;;;;;;14.40;4.85;;;;;;;17.14;65.55;99634.94;5036351;28;20025;-74
2023/05/29 04:40:31;;;;;;;15.80;5.00;;;;;;;17.16;65.74;99638.38;5036222;28;20510;-74
2023/05/29 04:43:00;;;;;;;12.93;4.57;;;;;;;17.18;65.48;99652.50;5036308;28;20029;-74
2023/05/29 04:45:25;;;;;;;15.45;4.60;;;;;;;17.22;65.54;99651.44;5034925;28;20045;-74
2023/05/29 04:47:53;;;;;;;16.50;5.00;;;;;;;17.29;65.21;99651.19;5036319;28;20037;-74
2023/05/29 04:50:18;;;;;;;13.93;5.63;;;;;;;17.32;65.02;99653.72;5035145;28;20406;-74
2023/05/29 04:52:44;;;;;;;15.63;5.13;;;;;;;17.28;65.32;99662.78;5036460;28;20030;-75
2023/05/29 04:55:10;;;;;;;15.37;5.40;;;;;;;17.21;65.60;99656.81;5036310;28;20090;-75
2023/05/29 04:57:35;;;;;;;12.00;4.75;;;;;;;17.19;65.58;99659.53;5036362;28;20029;-75
2023/05/29 05:00:06;;;;;;;16.63;5.37;;;;;;;17.21;65.36;99665.66;5038613;28;20494;-74
2023/05/29 05:02:32;;;;;;;17.20;5.72;;;;;;;17.27;65.64;99664.56;5039347;28;20025;-74
2023/05/29 05:04:58;;;;;;;17.47;5.60;;;;;;;17.32;65.19;99667.88;5040254;28;20072;-74
2023/05/29 05:07:24;;;;;;;19.80;6.07;;;;;;;17.39;65.13;99668.50;5026859;28;20115;-75
2023/05/29 05:09:50;;;;;;;13.82;5.43;;;;;;;17.47;64.91;99666.34;5040165;28;20071;-75
2023/05/29 05:12:16;;;;;;;18.17;5.47;;;;;;;17.61;64.81;99664.91;5039778;28;20398;-75
2023/05/29 05:14:41;;;;;;;15.23;5.28;;;;;;;17.63;64.72;99658.59;5039765;28;20033;-74
2023/05/29 05:17:07;;;;;;;15.07;5.63;;;;;;;17.59;64.88;99661.47;5038287;28;20547;-74
2023/05/29 05:19:33;;;;;;;20.60;5.85;;;;;;;17.52;65.18;99663.50;5039635;28;20029;-75
2023/05/29 05:22:00;;;;;;;13.40;5.87;;;;;;;17.55;65.00;99673.19;5045824;28;20033;-74
2023/05/29 05:24:26;;;;;;;13.45;5.30;;;;;;;17.60;64.89;99672.06;5039692;28;20057;-74
2023/05/29 05:26:51;;;;;;;17.58;6.30;;;;;;;17.67;64.74;99677.97;5039310;28;20037;-75
2023/05/29 05:29:17;;;;;;;17.40;5.13;;;;;;;17.69;64.74;99673.44;5039005;28;20032;-74
2023/05/29 05:31:43;;;;;;;15.80;5.63;;;;;;;17.70;64.95;99680.50;5039167;28;20048;-75
2023/05/29 05:34:08;;;;;;;14.60;5.57;;;;;;;17.71;64.80;99674.22;5018003;28;20111;-75
2023/05/29 05:36:34;;;;;;;13.37;5.60;;;;;;;17.74;64.82;99673.25;5038614;28;20029;-75
2023/05/29 05:39:00;;;;;;;14.30;5.53;;;;;;;17.83;64.37;99674.66;5039082;28;20260;-75
2023/05/29 05:41:25;;;;;;;18.15;5.50;;;;;;;17.94;64.46;99683.00;5038889;28;20018;-75
2023/05/29 05:43:55;;;;;;;16.17;4.93;;;;;;;18.10;64.14;99690.38;5038880;28;20155;-75
2023/05/29 05:46:20;;;;;;;14.57;5.93;;;;;;;18.15;64.15;99685.69;5038908;28;20092;-75
2023/05/29 05:48:46;;;;;;;15.13;5.17;;;;;;;18.18;64.00;99680.22;5038836;28;20113;-74
2023/05/29 05:51:12;;;;;;;16.03;6.10;;;;;;;18.21;64.01;99683.63;5038776;28;20045;-75
2023/05/29 05:53:37;;;;;;;17.13;6.10;;;;;;;18.23;64.33;99686.22;5038748;28;20516;-75
2023/05/29 05:56:03;;;;;;;16.77;5.33;;;;;;;18.20;64.38;99689.00;5037103;28;20033;-74
2023/05/29 05:58:31;;;;;;;16.60;6.03;;;;;;;18.24;64.54;99684.41;5038649;28;20486;-75
2023/05/29 06:00:57;;;;;;;19.60;5.97;;;;;;;18.27;64.22;99685.16;5037150;28;20025;-74
2023/05/29 06:03:23;;;;;;;15.90;5.40;;;;;;;18.34;64.27;99691.94;5038834;28;20033;-75
2023/05/29 06:05:48;;;;;;;16.75;5.90;;;;;;;18.42;64.26;99683.59;5038670;28;20030;-74
2023/05/29 06:08:15;;;;;;;17.93;5.27;;;;;;;18.47;64.21;99688.72;5038491;28;20056;-74
2023/05/29 06:10:40;;;;;;;15.70;6.20;;;;;;;18.54;64.22;99684.81;5038735;28;20079;-74
2023/05/29 06:13:06;;;;;;;17.37;5.83;;;;;;;18.63;64.07;99683.53;5038435;28;20034;-74
2023/05/29 06:15:31;;;;;;;16.00;5.57;;;;;;;18.73;63.72;99683.97;5038248;28;20493;-74
2023/05/29 06:17:57;;;;;;;15.87;4.80;;;;;;;18.96;63.20;99684.66;5037233;28;20084;-74
2023/05/29 06:20:23;;;;;;;17.83;4.60;;;;;;;19.11;62.85;99683.94;5038541;28;20397;-73
2023/05/29 06:22:50;;;;;;;15.00;5.47;;;;;;;19.17;62.94;99678.31;5044255;28;20053;-73
2023/05/29 06:25:18;;;;;;;12.85;4.80;;;;;;;19.19;63.28;99675.53;5037952;28;20047;-74
2023/05/29 06:27:44;;;;;;;21.60;5.17;;;;;;;19.22;63.18;99675.38;5038187;28;20025;-73
2023/05/29 06:30:10;;;;;;;19.38;4.85;;;;;;;19.22;63.42;99676.28;5037906;28;20025;-73
2023/05/29 06:32:36;;;;;;;10.55;4.50;;;;;;;19.31;63.42;99676.75;5037949;28;20485;-73
2023/05/29 06:35:02;;;;;;;14.27;5.03;;;;;;;19.33;63.23;99683.75;5038170;28;20048;-74
2023/05/29 06:37:27;;;;;;;14.33;4.27;;;;;;;19.36;63.23;99677.38;5036730;28;20033;-74
2023/05/29 06:39:52;;;;;;;16.87;4.80;;;;;;;19.47;63.00;99679.50;5036557;28;20037;-74
2023/05/29 06:42:18;;;;;;;11.70;4.03;;;;;;;19.61;62.99;99692.16;5037737;28;20056;-74
2023/05/29 06:44:43;;;;;;;13.27;4.43;;;;;;;19.77;62.36;99693.09;5037692;28;20500;-73
2023/05/29 06:47:09;;;;;;;14.83;4.50;;;;;;;19.97;61.77;99687.69;5036213;28;20045;-74
2023/05/29 06:49:35;;;;;;;13.85;4.47;;;;;;;20.01;61.63;99684.78;5035874;28;20021;-74
2023/05/29 06:52:00;;;;;;;10.90;4.37;;;;;;;20.03;61.65;99682.88;5036282;28;20072;-73
2023/05/29 06:54:26;;;;;;;12.23;4.37;;;;;;;20.12;61.63;99684.22;5019741;28;20041;-72
2023/05/29 06:56:52;;;;;;;14.45;4.25;;;;;;;20.26;61.44;99688.81;5037528;28;20069;-73
2023/05/29 06:59:18;;;;;;;15.52;4.38;;;;;;;20.40;61.22;99689.88;5037353;28;20058;-72
2023/05/29 07:01:44;;;;;;;14.97;4.40;;;;;;;20.53;61.11;99690.94;5037375;28;20071;-72
2023/05/29 07:04:11;;;;;;;12.48;4.60;;;;;;;20.68;60.33;99694.56;5036202;28;20037;-72
2023/05/29 07:06:37;;;;;;;11.57;3.80;;;;;;;20.80;59.82;99693.06;5036788;28;20849;-72
2023/05/29 07:09:02;;;;;;;13.70;3.77;;;;;;;20.93;59.77;99694.09;5035975;28;20025;-72
2023/05/29 07:11:28;;;;;;;14.50;4.00;;;;;;;21.15;59.54;99694.69;5035976;28;20109;-72
2023/05/29 07:13:55;;;;;;;10.30;3.30;;;;;;;21.35;59.12;99688.19;5027551;28;20120;-72
2023/05/29 07:16:20;;;;;;;13.45;3.50;;;;;;;21.60;58.33;99694.78;5036832;28;20104;-73
2023/05/29 07:18:45;;;;;;;9.53;3.10;;;;;;;21.74;57.96;99697.50;5036048;28;20120;-73
2023/05/29 07:21:11;;;;;;;11.57;3.42;;;;;;;21.84;57.63;99700.50;5042380;28;20071;-73
2023/05/29 07:23:37;;;;;;;12.27;4.10;;;;;;;22.03;57.42;99694.88;5037511;28;20152;-73
2023/05/29 07:26:02;;;;;;;8.63;3.47;;;;;;;22.22;56.90;99704.47;5037314;28;20036;-72
2023/05/29 07:28:27;;;;;;;8.00;3.30;;;;;;;22.28;56.50;99705.94;5036656;28;20041;-72
2023/05/29 07:30:53;;;;;;;15.03;3.60;;;;;;;22.37;56.90;99706.22;5034821;28;20140;-72
2023/05/29 07:33:19;;;;;;;17.57;4.00;;;;;;;22.53;56.52;99707.94;5037069;28;20029;-73
2023/05/29 07:35:45;;;;;;;12.50;3.70;;;;;;;22.72;56.47;99702.28;5038124;28;20029;-73
2023/05/29 07:38:10;;;;;;;10.97;3.57;;;;;;;22.91;55.59;99701.97;5037926;28;20030;-74
2023/05/29 07:40:35;;;;;;;10.25;3.60;;;;;;;22.98;55.48;99698.88;5030174;28;20116;-73
2023/05/29 07:43:01;;;;;;;11.13;3.60;;;;;;;23.07;55.02;99693.75;5028603;28;20033;-73
2023/05/29 07:45:27;;;;;;;11.13;3.60;;;;;;;23.23;54.93;99690.91;5020698;28;20049;-73
2023/05/29 07:47:52;;;;;;;8.68;3.30;;;;;;;23.46;54.28;99690.41;5029368;28;20037;-75
2023/05/29 07:50:18;;;;;;;12.17;4.17;;;;;;;23.61;54.03;99692.03;5033502;28;20544;-72
2023/05/29 07:52:44;;;;;;;11.77;3.78;;;;;;;23.65;53.40;99690.88;5037175;28;20045;-72
2023/05/29 07:55:10;;;;;;;14.10;4.10;;;;;;;23.70;52.94;99687.84;5033337;28;20079;-72
2023/05/29 07:57:37;;;;;;;12.20;4.03;;;;;;;23.70;53.11;99687.84;5037215;28;20040;-74
2023/05/29 08:00:08;;;;;;;11.60;4.00;;;;;;;23.68;53.56;99689.78;5035373;28;20112;-73
2023/05/29 08:02:36;;;;;;;12.77;3.17;;;;;;;23.81;52.87;99697.88;5038038;28;20021;-72
2023/05/29 08:05:03;;;;;;;11.33;4.03;;;;;;;23.98;51.99;99691.31;5036500;28;20038;-72
2023/05/29 08:07:30;;;;;;;11.00;4.10;;;;;;;24.05;52.42;99692.66;5035936;28;20040;-72
2023/05/29 08:09:55;;;;;;;11.63;3.53;;;;;;;24.07;52.22;99690.72;5037845;28;20483;-73
2023/05/29 08:12:21;;;;;;;15.47;4.17;;;;;;;24.11;52.20;99695.88;5035932;28;20077;-73
2023/05/29 08:14:47;;;;;;;11.13;3.38;;;;;;;24.22;52.05;99698.66;5032347;28;20029;-73
2023/05/29 08:17:12;;;;;;;13.30;3.70;;;;;;;24.47;52.28;99694.22;5036670;28;20497;-74
2023/05/29 08:19:38;;;;;;;10.47;3.67;;;;;;;24.68;51.71;99682.88;5036649;28;20029;-72
2023/05/29 08:22:03;;;;;;;15.90;3.35;;;;;;;24.82;51.66;99690.88;5042083;28;20025;-74
2023/05/29 08:24:30;;;;;;;15.00;3.77;;;;;;;25.06;50.95;99685.47;5032354;28;20034;-73
2023/05/29 08:26:55;;;;;;;11.75;3.30;;;;;;;25.28;50.45;99688.44;5037580;28;20025;-74
2023/05/29 08:29:21;;;;;;;9.37;3.30;;;;;;;25.39;50.18;99693.84;5037073;28;20034;-72
2023/05/29 08:31:46;;;;;;;12.73;3.33;;;;;;;25.52;49.93;99685.72;5037098;28;20028;-72
2023/05/29 08:34:12;;;;;;;11.77;3.50;;;;;;;25.68;49.89;99687.25;5040402;28;20040;-71
2023/05/29 08:36:37;;;;;;;10.60;3.40;;;;;;;25.89;49.77;99684.72;5040696;28;20038;-71
2023/05/29 08:39:03;;;;;;;11.00;3.50;;;;;;;26.05;49.24;99682.56;5042245;28;20025;-71
2023/05/29 08:41:33;;;;;;;11.85;3.63;;;;;;;26.19;48.89;99688.75;5041267;28;20100;-72
2023/05/29 08:44:03;;;;;;;10.23;3.72;;;;;;;26.28;48.38;99684.44;5039798;28;20041;-72
2023/05/29 08:46:29;;;;;;;9.83;3.67;;;;;;;26.34;48.89;99684.81;5039848;28;20061;-72
2023/05/29 08:48:58;;;;;;;12.98;4.25;;;;;;;26.44;49.07;99684.09;5038764;28;20036;-71
2023/05/29 08:51:31;;;;;;;8.93;3.28;;;;;;;26.58;48.30;99691.06;5041115;28;20064;-71
2023/05/29 08:53:56;;;;;;;11.38;3.53;;;;;;;26.74;48.37;99680.72;5041226;28;20505;-71
2023/05/29 08:56:22;;;;;;;9.70;3.50;;;;;;;26.87;48.07;99680.59;5041315;28;20065;-72
2023/05/29 08:58:48;;;;;;;12.48;3.85;;;;;;;27.07;47.36;99676.28;5040817;28;20029;-72
2023/05/29 09:01:15;;;;;;;8.73;3.58;;;;;;;27.14;47.16;99676.63;5042077;28;20508;-71
2023/05/29 09:03:41;;;;;;;10.68;3.67;;;;;;;27.25;46.99;99669.47;5040997;28;20113;-74
2023/05/29 09:06:08;;;;;;;17.97;4.30;;;;;;;27.32;46.65;99673.34;5039359;28;20505;-73
2023/05/29 09:08:34;;;;;;;10.02;3.55;;;;;;;27.23;46.81;99677.69;5040240;28;20409;-73
2023/05/29 09:11:00;;;;;;;7.85;3.13;;;;;;;27.12;46.97;99675.03;5040397;28;20034;-73
2023/05/29 09:13:28;;;;;;;9.95;3.22;;;;;;;26.94;47.18;99684.53;5038442;28;20049;-72
2023/05/29 09:16:00;;;;;;;9.30;3.20;;;;;;;26.90;47.22;99679.50;5042095;28;20485;-72
2023/05/29 09:18:31;;;;;;;12.35;3.67;;;;;;;26.85;47.14;99682.56;5040715;28;20064;-72
2023/05/29 09:20:57;;;;;;;11.20;3.42;;;;;;;26.88;47.02;99681.47;5043387;28;20024;-71
2023/05/29 09:23:25;;;;;;;9.43;3.55;;;;;;;26.91;46.38;99676.69;5041636;28;20029;-72
2023/05/29 09:25:54;;;;;;;9.07;3.10;;;;;;;27.00;46.26;99677.75;5039886;28;20033;-71
2023/05/29 09:28:23;;;;;;;13.53;3.27;;;;;;;27.07;46.40;99664.59;5040141;28;20116;-71
2023/05/29 09:30:49;;;;;;;9.80;3.08;;;;;;;27.29;46.16;99662.81;5039802;28;20037;-71
2023/05/29 09:33:16;;;;;;;13.33;3.77;;;;;;;27.51;46.29;99657.31;5039611;28;20401;-71
2023/05/29 09:35:46;;;;;;;9.37;3.47;;;;;;;27.73;45.64;99662.72;5023346;28;20268;-73
2023/05/29 09:38:16;;;;;;;12.50;3.35;;;;;;;27.60;44.97;99660.22;5041460;28;20029;-73
2023/05/29 09:40:45;;;;;;;12.98;3.85;;;;;;;27.56;45.25;99659.66;5037840;28;20041;-73
2023/05/29 09:43:17;;;;;;;9.60;3.20;;;;;;;27.69;45.24;99663.97;5038961;28;20582;-74
2023/05/29 09:45:47;;;;;;;9.90;3.80;;;;;;;27.94;44.98;99668.13;5038382;28;20087;-74
2023/05/29 09:48:18;;;;;;;10.63;3.20;;;;;;;28.18;44.35;99661.59;5036317;28;20037;-74
2023/05/29 09:50:47;;;;;;;10.13;3.33;;;;;;;28.34;43.86;99659.25;5040444;28;20049;-72
2023/05/29 09:53:28;;;;;;;10.32;3.80;;;;;;;28.38;43.36;99657.13;5035303;28;20032;-72
2023/05/29 09:55:56;;;;;;;11.85;3.38;;;;;;;28.44;43.58;99663.84;5034878;28;20551;-73
2023/05/29 09:58:22;;;;;;;11.85;3.85;;;;;;;28.52;43.38;99666.72;5039190;28;20508;-72
2023/05/29 10:00:49;;;;;;;8.53;3.23;;;;;;;28.72;42.92;99655.94;5038604;28;20044;-74
2023/05/29 10:03:16;;;;;;;9.55;3.53;;;;;;;28.93;42.69;99659.44;5038462;28;20040;-72
2023/05/29 10:05:43;;;;;;;12.20;3.67;;;;;;;29.11;42.76;99663.31;5037444;28;20068;-73
2023/05/29 10:08:12;;;;;;;12.48;3.88;;;;;;;29.17;42.43;99655.47;5039437;28;20498;-74
2023/05/29 10:10:41;;;;;;;11.35;3.60;;;;;;;29.19;42.09;99660.75;5038861;28;20482;-74
2023/05/29 10:13:11;;;;;;;11.13;3.60;;;;;;;29.26;41.94;99666.44;5038139;28;20026;-74
2023/05/29 10:15:38;;;;;;;13.25;3.65;;;;;;;29.29;42.10;99663.44;5034010;28;20093;-74
2023/05/29 10:18:09;;;;;;;10.40;3.90;;;;;;;29.33;41.85;99659.47;5035887;28;20489;-75
2023/05/29 10:20:36;;;;;;;11.88;3.58;;;;;;;29.40;42.10;99660.59;5034974;28;20037;-75
2023/05/29 10:23:04;;;;;;;9.00;3.50;;;;;;;29.48;41.73;99657.22;5038350;28;20108;-74
2023/05/29 10:25:32;;;;;;;9.07;3.30;;;;;;;29.57;41.60;99652.78;5038251;28;20030;-74
2023/05/29 10:27:59;;;;;;;11.20;3.38;;;;;;;29.68;41.73;99646.34;5035082;28;20022;-74
2023/05/29 10:30:28;;;;;;;9.13;3.53;;;;;;;29.79;40.81;99651.59;5035145;28;20037;-74
2023/05/29 10:32:55;;;;;;;9.05;3.88;;;;;;;29.80;41.31;99639.72;5037938;28;20026;-75
2023/05/29 10:35:30;;;;;;;17.52;6.70;;;;;;;29.70;41.26;99650.59;5036244;28;20025;-75
2023/05/29 10:38:02;;;;;;;11.97;4.47;;;;;;;29.72;40.84;99645.88;5035704;28;20068;-74
2023/05/29 10:40:28;;;;;;;11.20;3.65;;;;;;;29.83;40.93;99644.03;5033019;28;20058;-75
2023/05/29 10:42:58;;;;;;;21.33;10.83;;;;;;;29.93;40.24;99636.69;5036936;28;20478;-75
2023/05/29 10:45:32;;;;;;;30.30;15.65;;;;;;;29.93;40.10;99637.56;5032049;28;20041;-74
2023/05/29 10:48:07;;;;;;;12.65;5.15;;;;;;;30.00;40.15;99640.53;5035746;28;20041;-74
2023/05/29 10:50:35;;;;;;;10.73;3.83;;;;;;;30.13;39.30;99637.50;5036094;28;20032;-74
2023/05/29 10:53:01;;;;;;;13.73;4.40;;;;;;;30.22;39.64;99633.03;5035700;28;20057;-74
2023/05/29 10:55:35;;;;;;;11.33;3.87;;;;;;;30.23;38.94;99637.47;5034401;28;20030;-74
2023/05/29 10:58:08;;;;;;;12.77;3.80;;;;;;;30.33;39.09;99626.56;5035762;28;20029;-74
2023/05/29 11:00:41;;;;;;;11.07;3.67;;;;;;;30.40;38.47;99629.53;5034831;28;20116;-74
2023/05/29 11:03:07;;;;;;;14.48;4.35;;;;;;;30.40;38.66;99632.25;5031644;28;20385;-74
2023/05/29 11:05:32;;;;;;;15.63;4.10;;;;;;;30.46;38.62;99626.22;5036526;28;20037;-73
2023/05/29 11:08:00;;;;;;;13.17;4.70;;;;;;;30.42;37.46;99628.41;5036877;28;20033;-74
2023/05/29 11:10:47;;;;;;;12.48;4.28;;;;;;;30.28;36.98;99627.03;5036593;28;20036;-74
2023/05/29 11:13:26;;;;;;;14.77;3.88;;;;;;;30.41;37.55;99620.38;5036201;28;20040;-74
2023/05/29 11:16:12;;;;;;;15.20;6.03;;;;;;;30.51;37.81;99618.50;5036052;28;20512;-74
2023/05/29 11:18:46;;;;;;;9.67;3.80;;;;;;;30.59;37.07;99617.69;5034663;28;20037;-74
2023/05/29 11:21:33;;;;;;;13.98;5.30;;;;;;;30.56;37.43;99612.56;5042207;28;20025;-75
2023/05/29 11:24:02;;;;;;;16.35;4.82;;;;;;;30.73;37.43;99611.78;5026406;28;20120;-75
2023/05/29 11:26:28;;;;;;;11.27;4.18;;;;;;;30.83;36.80;99609.00;5035659;28;20029;-75